Time;durP1;ratioP1;P1;durP2;ratioP2;P2;SDS_P1;SDS_P2;PMS_P1;PMS_P2;Temp;Humidity;BMP_temperature;BMP_pressure;BME280_temperature;BME280_humidity;BME280_pressure;Samples;Min_cycle;Max_cycle;Signal;HPM_P1;HPM_P2
2022/01/24 00:02:03;;;;;;;12.05;4.30;;;;;;;;;;6334754;22;20495;-95
2022/01/24 00:04:29;;;;;;;9.18;4.22;;;;;;;;;;6335896;22;19999;-95
2022/01/24 00:06:57;;;;;;;9.07;4.05;;;;;;;;;;6336857;22;20014;-94
2022/01/24 00:09:22;;;;;;;;;;;3.90;92.70;;;;;;6333271;22;20002;-95
2022/01/24 00:17:11;;;;;;;21.90;6.80;;;;;;;;;;6336850;22;20652;-94
2022/01/24 00:27:53;;;;;;;22.75;6.03;;;;;;;;;;6334608;22;20014;-95
2022/01/24 00:30:19;;;;;;;19.40;5.70;;;;;;;;;;6335641;22;20651;-95
2022/01/24 00:32:45;;;;;;;11.50;4.45;;;;;;;;;;6333325;22;20110;-93
2022/01/24 00:35:12;;;;;;;19.33;5.25;;;;;;;;;;6334656;22;19998;-93
2022/01/24 00:37:38;;;;;;;14.35;4.70;;;;;;;;;;6334867;22;20017;-95
2022/01/24 00:40:05;;;;;;;12.80;5.20;;;;;;;;;;6334918;22;20428;-95
2022/01/24 00:45:09;;;;;;;12.48;6.90;;;;;;;;;;6337248;22;20014;-94
2022/01/24 00:55:47;;;;;;;10.85;4.97;;;;;;;;;;6335669;22;20029;-94
2022/01/24 00:58:13;;;;;;;19.98;5.07;;;;;;;;;;6332878;22;20014;-94
2022/01/24 01:00:39;;;;;;;9.82;4.47;;;;;;;;;;6335419;22;19999;-96
2022/01/24 01:03:05;;;;;;;24.20;8.27;;;;;;;;;;6333659;22;20015;-93
2022/01/24 01:18:49;;;;;;;22.60;7.00;;;;;;;;;;6333261;22;20014;-94
2022/01/24 01:21:15;;;;;;;;;;;;;;;;;;6336585;22;20007;-95
2022/01/24 01:23:45;;;;;;;6.93;3.35;;;;;;;;;;6334166;22;19926;-95
2022/01/24 01:26:22;;;;;;;11.27;5.28;;;;;;;;;;6334969;22;20434;-95
2022/01/24 01:28:53;;;;;;;12.77;6.05;;;;;;;;;;6331571;22;20011;-94
2022/01/24 01:31:30;;;;;;;13.73;5.78;;;;;;;;;;6334484;22;20018;-93
2022/01/24 01:34:12;;;;;;;11.68;5.43;;;;;;;;;;6332676;22;19999;-95
2022/01/24 02:10:33;;;;;;;9.50;3.90;;;;;;;;;;6305712;22;20389;-95
2022/01/24 02:13:08;;;;;;;13.38;5.38;;;;;;;;;;6304378;22;20011;-94
2022/01/24 02:23:50;;;;;;;17.48;7.20;;;;;;;;;;6303372;22;20467;-95
2022/01/24 02:26:22;;;;;;;12.38;5.20;;;;;;;;;;6307079;22;20075;-94
2022/01/24 02:34:45;;;;;;;7.63;4.50;;;;;;;;;;6307103;22;20069;-94
2022/01/24 02:37:15;;;;;;;18.02;5.65;;;;;;;;;;6306432;22;20385;-95
2022/01/24 02:39:59;;;;;;;17.73;6.13;;;;;;;;;;6303892;22;20446;-94
2022/01/24 02:54:07;;;;;;;20.85;7.03;;;;;;;;;;6283988;22;20031;-96
2022/01/24 02:56:43;;;;;;;23.90;6.40;;;;;;;;;;6247557;22;20011;-96
2022/01/24 03:02:08;;;;;;;10.88;4.65;;;;;;;;;;6269717;22;20018;-96
2022/01/24 03:04:39;;;;;;;26.20;8.40;;;;;;;;;;6274095;22;20014;-94
2022/01/24 03:10:36;;;;;;;19.13;7.32;;;;;;;;;;6271136;22;20014;-94
2022/01/24 03:21:37;;;;;;;17.10;5.72;;;;;;;;;;6273684;22;20049;-96
2022/01/24 03:24:11;;;;;;;15.80;8.13;;;;;;;;;;6246540;22;20008;-96
2022/01/24 03:32:13;;;;;;;16.40;6.95;;;;;;;;;;6272413;22;20050;-95
2022/01/24 03:34:45;;;;;;;26.55;8.20;;;;;;;;;;6275797;22;20004;-96
2022/01/24 03:37:15;;;;;;;15.85;5.32;;;;;;;;;;6273257;22;20435;-95
2022/01/24 03:39:43;;;;;;;24.95;8.98;;;;;;;;;;6270781;22;20135;-95
2022/01/24 03:42:09;;;;;;;19.25;5.60;;;;;;;;;;6271041;22;20004;-96
2022/01/24 03:44:38;;;;;;;18.35;7.07;;;;;;;;;;6273685;22;20011;-96
2022/01/24 03:47:30;;;;;;;15.70;7.43;;;;;;;;;;6274429;22;20401;-94
2022/01/24 03:49:56;;;;;;;20.52;6.97;;;;;;;;;;6272066;22;20004;-96
2022/01/24 03:52:23;;;;;;;23.27;7.90;;;;;;;;;;6271092;22;20015;-95
2022/01/24 03:54:49;;;;;;;15.43;8.70;;;;;;;;;;6275369;22;20065;-95
2022/01/24 03:57:17;;;;;;;19.67;7.85;;;;;;;;;;6274692;22;20012;-94
2022/01/24 03:59:43;;;;;;;22.17;7.68;;;;;;;;;;6269758;22;20091;-95
2022/01/24 04:02:10;;;;;;;16.95;5.80;;;;;;;;;;6271973;22;20011;-94
2022/01/24 04:04:36;;;;;;;12.75;7.70;;;;;;;;;;6248341;22;20035;-95
2022/01/24 04:07:03;;;;;;;12.70;4.88;;;;;;;;;;6273407;22;20003;-94
2022/01/24 04:09:29;;;;;;;;;;;;;;;;;;6270649;22;20468;-96
2022/01/24 04:11:58;;;;;;;15.63;6.00;;;;;;;;;;6271479;22;19960;-94
2022/01/24 04:22:25;;;;;;;20.35;9.32;;;;;;;;;;6271416;22;20011;-94
2022/01/24 04:24:59;;;;;;;14.25;6.53;;;;;;;;;;6273458;22;20010;-96
2022/01/24 04:27:28;;;;;;;14.30;7.90;;;;;;;;;;6274215;22;20095;-95
2022/01/24 04:29:56;;;;;;;13.48;5.70;;;;;;;;;;6270148;22;20822;-95
2022/01/24 04:32:22;;;;;;;;;;;;;;;;;;6270398;22;20016;-95
2022/01/24 04:34:48;;;;;;;15.48;5.43;;;;;;;;;;6274773;22;19983;-95
2022/01/24 04:37:18;;;;;;;14.05;6.75;;;;;;;;;;6272165;22;20026;-94
2022/01/24 04:39:48;;;;;;;21.20;6.57;;;;;;;;;;6269048;22;20003;-95
2022/01/24 04:42:26;;;;;;;18.30;7.10;;;;;;;;;;6271898;22;20008;-95
2022/01/24 04:45:59;;;;;;;18.33;7.72;;;;;;;;;;6272320;22;20031;-95
2022/01/24 04:59:59;;;;;;;14.27;7.07;;;;;;;;;;6270724;22;20073;-96
2022/01/24 05:05:18;;;;;;;20.10;7.78;;;;;;;;;;6274834;22;20031;-94
2022/01/24 05:28:42;;;;;;;18.02;6.57;;;3.20;93.00;;;;;;6272529;22;20491;-94
2022/01/24 05:31:10;;;;;;;22.08;6.53;;;;;;;;;;6273434;22;20007;-96
2022/01/24 05:33:41;;;;;;;18.42;7.35;;;;;;;;;;6271990;22;20031;-96
2022/01/24 05:53:24;;;;;;;22.25;7.53;;;;;;;;;;6272879;22;20062;-95
2022/01/24 05:55:53;;;;;;;10.02;4.57;;;;;;;;;;6272272;22;20000;-94
2022/01/24 05:58:22;;;;;;;11.02;4.15;;;;;;;;;;6274739;22;20007;-96
2022/01/24 06:00:49;;;;;;;13.02;5.55;;;;;;;;;;6272228;22;20518;-95
2022/01/24 06:03:18;;;;;;;16.88;6.22;;;;;;;;;;6247472;22;20039;-94
2022/01/24 06:05:48;;;;;;;9.60;4.45;;;;;;;;;;6273472;22;20043;-95
2022/01/24 06:08:17;;;;;;;19.25;6.72;;;;;;;;;;6273684;22;20011;-95
2022/01/24 06:10:47;;;;;;;15.05;4.68;;;;;;;;;;6271877;22;20004;-95
2022/01/24 06:13:14;;;;;;;15.75;5.57;;;;;;;;;;6273788;22;20019;-94
2022/01/24 06:15:47;;;;;;;17.63;5.53;;;;;;;;;;6274841;22;20000;-95
2022/01/24 06:18:17;;;;;;;14.77;7.13;;;;;;;;;;6274872;22;20011;-96
2022/01/24 06:20:45;;;;;;;10.70;5.20;;;;;;;;;;6221082;22;20008;-95
2022/01/24 06:23:31;;;;;;;16.38;6.13;;;;;;;;;;6270093;22;20079;-94
2022/01/24 06:26:06;;;;;;;14.68;6.13;;;;;;;;;;6274335;22;20007;-95
2022/01/24 06:28:40;;;;;;;13.98;6.10;;;;;;;;;;6271981;22;20003;-96
2022/01/24 06:31:10;;;;;;;14.63;5.57;;;;;;;;;;6270470;22;20004;-96
2022/01/24 06:33:39;;;;;;;12.45;6.05;;;;;;;;;;6270144;22;20035;-95
2022/01/24 06:36:07;;;;;;;9.65;5.53;;;;;;;;;;6267682;22;20004;-94
2022/01/24 06:41:35;;;;;;;23.73;7.75;;;;;;;;;;6279445;22;20106;-95
2022/01/24 06:44:04;;;;;;;12.95;6.10;;;;;;;;;;6272362;22;20481;-94
2022/01/24 06:46:50;;;;;;;11.77;6.10;;;;;;;;;;6274771;22;20018;-96
2022/01/24 06:55:35;;;;;;;10.77;4.40;;;;;;;;;;6274957;22;20076;-96
2022/01/24 06:58:01;;;;;;;21.35;5.90;;;;;;;;;;6274309;22;20235;-96
2022/01/24 07:00:31;;;;;;;21.45;7.47;;;;;;;;;;6272449;22;20007;-96
2022/01/24 07:05:45;;;;;;;26.13;7.32;;;;;;;;;;6274715;22;20019;-95
2022/01/24 07:08:15;;;;;;;16.17;6.93;;;;;;;;;;6247220;22;20078;-95
2022/01/24 07:10:42;;;;;;;16.02;7.00;;;;;;;;;;6272720;22;20003;-94
2022/01/24 07:13:11;;;;;;;14.63;6.95;;;;;;;;;;6273144;22;20037;-95
2022/01/24 07:16:01;;;;;;;13.07;6.63;;;;;;;;;;6274520;22;20015;-94
2022/01/24 07:21:17;;;;;;;15.98;4.82;;;;;;;;;;6274742;22;20077;-95
2022/01/24 07:23:44;;;;;;;10.40;5.10;;;;;;;;;;6272184;22;20024;-95
2022/01/24 07:26:11;;;;;;;15.55;6.47;;;;;;;;;;6273226;22;20091;-95
2022/01/24 07:28:41;;;;;;;17.23;7.65;;;;;;;;;;6274807;22;19995;-95
2022/01/24 07:31:13;;;;;;;16.55;5.55;;;;;;;;;;6247739;22;20031;-95
2022/01/24 07:33:56;;;;;;;13.70;5.43;;;;;;;;;;6275119;22;20015;-96
2022/01/24 07:44:57;;;;;;;14.80;6.45;;;;;;;;;;6277284;22;20034;-96
2022/01/24 07:52:52;;;;;;;15.40;7.85;;;;;;;;;;6291761;22;20027;-93
2022/01/24 08:06:40;;;;;;;23.92;13.18;;;;;;;;;;6292940;22;20114;-93
2022/01/24 08:09:09;;;;;;;35.70;12.18;;;;;;;;;;6266151;22;20007;-92
2022/01/24 08:16:56;;;;;;;28.70;10.88;;;;;;;;;;6293213;22;20085;-94
2022/01/24 08:22:07;;;;;;;21.50;6.90;;;;;;;;;;6300991;22;20050;-92
2022/01/24 08:27:30;;;;;;;24.60;10.55;;;;;;;;;;6304010;22;20602;-93
2022/01/24 08:32:41;;;;;;;33.92;9.75;;;;;;;;;;6296293;22;20068;-96
2022/01/24 08:40:30;;;;;;;22.23;8.13;;;;;;;;;;6305235;22;20023;-92
2022/01/24 08:43:06;;;;;;;24.00;9.27;;;;;;;;;;6311154;22;20014;-93
2022/01/24 08:48:15;;;;;;;22.77;9.35;;;2.30;94.90;;;;;;6338023;22;20437;-93
2022/01/24 08:50:42;;;;;;;25.63;8.50;;;;;;;;;;6337659;22;19999;-93
2022/01/24 08:53:10;;;;;;;22.95;8.23;;;;;;;;;;6310253;22;20019;-92
2022/01/24 08:55:38;;;;;;;31.45;9.80;;;;;;;;;;6337610;22;19999;-92
2022/01/24 08:58:04;;;;;;;;;;;;;;;;;;6338499;22;20346;-93
2022/01/24 09:00:30;;;;;;;31.88;9.57;;;;;;;;;;6338186;22;19938;-94
2022/01/24 09:02:59;;;;;;;17.38;8.45;;;;;;;;;;6337278;22;20033;-94
2022/01/24 09:14:12;;;;;;;16.38;6.90;;;;;;;;;;6302203;22;20023;-93
2022/01/24 09:16:40;;;;;;;23.75;7.47;;;;;;;;;;6278629;22;20008;-94
2022/01/24 09:19:08;;;;;;;18.40;7.65;;;;;;;;;;6278621;22;20003;-94
2022/01/24 09:21:36;;;;;;;14.73;6.68;;;;;;;;;;6277803;22;20434;-93
2022/01/24 09:24:03;;;;;;;15.70;7.05;;;;;;;;;;6305661;22;20014;-93
2022/01/24 09:26:29;;;;;;;19.13;7.28;;;;;;;;;;6305517;22;20054;-94
2022/01/24 09:28:55;;;;;;;16.60;7.07;;;;;;;;;;6277960;22;20008;-93
2022/01/24 09:31:22;;;;;;;16.42;5.57;;;;;;;;;;6305050;22;20007;-92
2022/01/24 09:33:48;;;;;;;11.05;4.47;;;;;;;;;;6305190;22;20724;-93
2022/01/24 09:36:14;;;;;;;20.73;7.30;;;;;;;;;;6278395;22;20362;-93
2022/01/24 09:38:40;;;;;;;20.35;7.60;;;;;;;;;;6305337;22;20088;-92
2022/01/24 09:41:07;;;;;;;27.20;7.13;;;;;;;;;;6305578;22;20035;-92
2022/01/24 09:43:33;;;;;;;16.45;6.43;;;;;;;;;;6277976;22;20091;-92
2022/01/24 09:46:00;;;;;;;19.25;6.80;;;;;;;;;;6305033;22;19999;-93
2022/01/24 09:48:27;;;;;;;20.70;8.50;;;;;;;;;;6277709;22;20555;-90
2022/01/24 09:50:53;;;;;;;17.38;7.07;;;;;;;;;;6277426;22;20064;-92
2022/01/24 09:53:23;;;;;;;18.85;7.35;;;7.10;79.50;;;;;;6277787;22;20015;-90
2022/01/24 09:55:50;;;;;;;17.60;9.00;;;;;;;;;;6304788;22;19999;-91
2022/01/24 09:58:16;;;;;;;19.95;8.30;;;;;;;;;;6277615;22;20003;-93
2022/01/24 10:00:42;;;;;;;15.20;7.03;;;;;;;;;;6276969;22;19995;-90
2022/01/24 10:03:09;;;;;;;20.23;9.10;;;;;;;;;;6277483;22;20003;-91
2022/01/24 10:05:40;;;;;;;18.50;8.05;;;;;;;;;;6277731;22;20035;-93
2022/01/24 10:08:07;;;;;;;23.13;8.93;;;;;;;;;;6305234;22;20022;-91
2022/01/24 10:10:35;;;;;;;17.48;8.63;;;;;;;;;;6277349;22;20149;-92
2022/01/24 10:16:25;;;;;;;18.85;8.38;;;;;;;;;;6305076;22;20046;-92
2022/01/24 10:19:00;;;;;;;16.70;7.15;;;;;;;;;;6305350;22;20001;-91
2022/01/24 10:21:26;;;;;;;23.02;8.85;;;;;;;;;;6279108;22;20476;-92
2022/01/24 10:23:52;;;;;;;17.35;6.57;;;;;;;;;;6279732;22;20081;-91
2022/01/24 10:26:18;;;;;;;22.23;9.02;;;;;;;;;;6279485;22;20086;-91
2022/01/24 10:28:45;;;;;;;24.38;7.60;;;;;;;;;;6306844;22;20053;-90
2022/01/24 10:31:11;;;;;;;16.77;6.93;;;;;;;;;;6279013;22;20043;-91
2022/01/24 10:34:00;;;;;;;24.65;8.75;;;;;;;;;;6279367;22;20476;-92
2022/01/24 10:36:33;;;;;;;25.67;10.40;;;;;;;;;;6307180;22;20014;-92
2022/01/24 10:39:12;;;;;;;13.50;6.15;;;;;;;;;;6307346;22;20227;-93
2022/01/24 10:44:33;;;;;;;21.52;7.45;;;;;;;;;;6306676;22;20099;-92
2022/01/24 10:47:13;;;;;;;20.48;8.50;;;;;;;;;;6279451;22;20014;-92
2022/01/24 10:49:40;;;;;;;25.35;10.18;;;;;;;;;;6306556;22;20003;-92
2022/01/24 10:52:10;;;;;;;27.20;9.80;;;;;;;;;;6306614;22;20113;-91
2022/01/24 10:54:36;;;;;;;26.88;9.73;;;;;;;;;;6279258;22;19999;-91
2022/01/24 10:57:02;;;;;;;19.17;7.70;;;;;;;;;;6306847;22;20010;-92
2022/01/24 10:59:28;;;;;;;29.52;8.68;;;;;;;;;;6306730;22;19995;-92
2022/01/24 11:01:55;;;;;;;20.65;9.65;;;;;;;;;;6306898;22;20338;-92
2022/01/24 11:04:29;;;;;;;20.75;7.63;;;;;;;;;;6278724;22;20003;-93
2022/01/24 11:06:56;;;;;;;21.10;8.18;;;;;;;;;;6279483;22;20523;-92
2022/01/24 11:09:22;;;;;;;26.55;9.35;;;;;;;;;;6306537;22;20438;-92
2022/01/24 11:11:49;;;;;;;24.05;8.85;;;;;;;;;;6278623;22;20007;-90
2022/01/24 11:14:18;;;;;;;22.27;9.15;;;;;;;;;;6279224;22;20161;-91
2022/01/24 11:16:44;;;;;;;22.02;8.63;;;;;;;;;;6306232;22;20003;-91
2022/01/24 11:19:27;;;;;;;24.85;11.57;;;;;;;;;;6305386;22;20007;-91
2022/01/24 11:21:53;;;;;;;20.77;9.70;;;;;;;;;;6279166;22;20007;-93
2022/01/24 11:24:26;;;;;;;17.33;6.65;;;;;;;;;;6306740;22;20007;-91
2022/01/24 11:26:52;;;;;;;25.10;8.40;;;;;;;;;;6278469;22;20003;-92
2022/01/24 11:29:19;;;;;;;26.08;9.85;;;;;;;;;;6278784;22;19999;-91
2022/01/24 11:31:52;;;;;;;23.98;8.85;;;;;;;;;;6305466;22;20030;-93
2022/01/24 11:34:38;;;;;;;26.05;9.77;;;;;;;;;;6279213;22;20056;-91
2022/01/24 11:37:06;;;;;;;31.13;9.30;;;;;;;;;;6278980;22;20052;-92
2022/01/24 11:39:32;;;;;;;25.25;9.90;;;;;;;;;;6279256;22;20086;-92
2022/01/24 11:41:59;;;;;;;17.30;8.82;;;;;;;;;;6305987;22;20743;-92
2022/01/24 11:44:27;;;;;;;31.75;12.25;;;;;;;;;;6306276;22;20003;-94
2022/01/24 11:46:55;;;;;;;16.98;8.43;;;;;;;;;;6306181;22;20000;-92
2022/01/24 11:49:27;;;;;;;26.70;10.98;;;;;;;;;;6278598;22;19999;-92
2022/01/24 11:52:10;;;;;;;22.58;8.85;;;;;;;;;;6306325;22;20015;-94
2022/01/24 11:54:50;;;;;;;23.88;9.13;;;;;;;;;;6306051;22;20549;-93
2022/01/24 11:57:28;;;;;;;17.13;7.85;;;;;;;;;;6305403;22;20078;-92
2022/01/24 12:00:06;;;;;;;16.77;8.38;;;;;;;;;;6306394;22;20064;-94
2022/01/24 12:02:38;;;;;;;22.27;9.50;;;;;;;;;;6306095;22;20003;-92
2022/01/24 12:05:15;;;;;;;27.48;9.07;;;;;;;;;;6305736;22;20009;-92
2022/01/24 12:07:48;;;;;;;24.38;9.63;;;;;;;;;;6306059;22;20421;-92
2022/01/24 12:12:51;;;;;;;28.25;10.93;;;;;;;;;;6305101;22;20023;-91
2022/01/24 12:15:39;;;;;;;18.05;10.77;;;7.40;81.50;;;;;;6306208;22;19999;-94
2022/01/24 12:18:12;;;;;;;18.23;9.35;;;;;;;;;;6278407;22;20520;-92
2022/01/24 12:20:40;;;;;;;25.10;9.75;;;;;;;;;;6278863;22;20148;-92
2022/01/24 12:23:25;;;;;;;26.80;10.02;;;;;;;;;;6306205;22;20043;-93
2022/01/24 12:26:05;;;;;;;25.48;11.52;;;;;;;;;;6278266;22;20450;-93
2022/01/24 12:28:44;;;;;;;18.08;7.70;;;;;;;;;;6306093;22;20364;-93
2022/01/24 12:31:13;;;;;;;34.22;9.75;;;;;;;;;;6305642;22;20120;-95
2022/01/24 12:33:51;;;;;;;25.55;9.32;;;;;;;;;;6305803;22;20004;-93
2022/01/24 12:36:37;;;;;;;32.08;10.63;;;;;;;;;;6306854;22;19996;-94
2022/01/24 12:39:10;;;;;;;21.25;9.52;;;;;;;;;;6278607;22;20003;-94
2022/01/24 12:41:40;;;;;;;27.30;9.85;;;;;;;;;;6278385;22;20003;-92
2022/01/24 12:46:34;;;;;;;22.17;10.57;;;;;;;;;;6305798;22;20003;-93
2022/01/24 12:49:01;;;;;;;30.40;12.23;;;;;;;;;;6278928;22;20007;-94
2022/01/24 12:51:28;;;;;;;;;;;7.50;80.80;;;;;;6279325;22;20007;-93
2022/01/24 12:53:55;;;;;;;23.95;9.50;;;;;;;;;;6306121;22;20009;-93
2022/01/24 12:56:28;;;;;;;30.77;10.65;;;;;;;;;;6305513;22;20014;-94
2022/01/24 12:58:55;;;;;;;39.65;10.40;;;;;;;;;;6279032;22;20512;-93
2022/01/24 13:01:24;;;;;;;14.57;7.32;;;;;;;;;;6279112;22;20315;-94
2022/01/24 13:04:04;;;;;;;25.40;9.57;;;;;;;;;;6278738;22;20011;-94
2022/01/24 13:06:31;;;;;;;26.50;8.13;;;;;;;;;;6278878;22;20491;-94
2022/01/24 13:09:03;;;;;;;21.40;10.20;;;;;;;;;;6279054;22;19999;-94
2022/01/24 13:11:30;;;;;;;23.92;10.10;;;;;;;;;;6305926;22;20466;-94
2022/01/24 13:14:00;;;;;;;20.90;10.65;;;;;;;;;;6305909;22;20014;-95
2022/01/24 13:22:37;;;;;;;29.17;10.30;;;;;;;;;;6305859;22;20018;-93
2022/01/24 13:25:09;;;;;;;27.75;8.23;;;;;;;;;;6305554;22;20004;-94
2022/01/24 13:27:37;;;;;;;26.00;10.68;;;;;;;;;;6305997;22;20065;-92
2022/01/24 13:30:07;;;;;;;24.48;9.07;;;;;;;;;;6305871;22;20430;-94
2022/01/24 13:32:47;;;;;;;30.60;11.20;;;;;;;;;;6305122;22;20012;-93
2022/01/24 13:35:17;;;;;;;22.27;9.07;;;;;;;;;;6306584;22;21031;-94
2022/01/24 13:37:44;;;;;;;27.67;9.68;;;;;;;;;;6306154;22;20011;-93
2022/01/24 13:40:10;;;;;;;33.90;11.10;;;;;;;;;;6305764;22;20126;-94
2022/01/24 13:42:36;;;;;;;19.88;8.52;;;;;;;;;;6279164;22;20579;-94
2022/01/24 13:45:03;;;;;;;28.60;12.27;;;;;;;;;;6278676;22;20433;-94
2022/01/24 13:47:29;;;;;;;23.87;9.17;;;;;;;;;;6305994;22;19999;-95
2022/01/24 13:49:55;;;;;;;28.20;12.50;;;;;;;;;;6278053;22;20090;-91
2022/01/24 13:52:24;;;;;;;27.30;10.80;;;;;;;;;;6305570;22;20042;-95
2022/01/24 13:54:51;;;;;;;28.67;10.00;;;;;;;;;;6306129;22;19999;-94
2022/01/24 13:57:18;;;;;;;25.33;11.73;;;;;;;;;;6307663;22;20064;-95
2022/01/24 13:59:44;;;;;;;27.80;10.38;;;;;;;;;;6280541;22;20096;-94
2022/01/24 14:02:15;;;;;;;28.65;12.52;;;;;;;;;;6307478;22;20130;-95
2022/01/24 14:04:49;;;;;;;24.30;9.60;;;;;;;;;;6307542;22;20056;-92
2022/01/24 14:07:22;;;;;;;18.73;9.27;;;;;;;;;;6307879;22;20003;-94
2022/01/24 14:09:49;;;;;;;28.52;9.65;;;;;;;;;;6280199;22;19999;-93
2022/01/24 14:12:16;;;;;;;;;;;7.00;86.30;;;;;;6307773;22;20019;-95
2022/01/24 14:14:49;;;;;;;22.10;7.68;;;;;;;;;;6307417;22;19969;-95
2022/01/24 14:17:25;;;;;;;17.90;8.45;;;;;;;;;;6307453;22;19995;-95
2022/01/24 14:19:57;;;;;;;20.23;10.40;;;;;;;;;;6280715;22;20438;-94
2022/01/24 14:22:24;;;;;;;21.95;7.68;;;;;;;;;;6307649;22;20342;-94
2022/01/24 14:24:56;;;;;;;24.08;8.80;;;;;;;;;;6279857;22;20727;-94
2022/01/24 14:27:42;;;;;;;21.00;8.02;;;;;;;;;;6307709;22;19999;-95
2022/01/24 14:30:22;;;;;;;25.27;8.82;;;;;;;;;;6279964;22;20006;-95
2022/01/24 14:33:00;;;;;;;29.90;11.23;;;;;;;;;;6306859;22;20098;-93
2022/01/24 14:35:27;;;;;;;35.42;10.73;;;;;;;;;;6306362;22;20007;-94
2022/01/24 14:37:54;;;;;;;24.50;8.38;;;;;;;;;;6307103;22;20025;-95
2022/01/24 14:40:35;;;;;;;27.40;11.38;;;;;;;;;;6307149;22;20019;-93
2022/01/24 14:45:47;;;;;;;16.35;7.95;;;;;;;;;;6307098;22;20061;-95
2022/01/24 14:48:13;;;;;;;23.15;11.43;;;;;;;;;;6305807;22;20104;-96
2022/01/24 14:50:39;;;;;;;20.58;10.40;;;;;;;;;;6279274;22;20234;-95
2022/01/24 14:53:08;;;;;;;37.08;10.27;;;;;;;;;;6307078;22;20027;-94
2022/01/24 14:55:34;;;;;;;32.58;9.85;;;;;;;;;;6307244;22;20017;-95
2022/01/24 14:58:00;;;;;;;21.27;10.52;;;;;;;;;;6306630;22;20009;-93
2022/01/24 15:00:29;;;;;;;24.92;9.95;;;;;;;;;;6306723;22;20006;-92
2022/01/24 15:02:56;;;;;;;25.63;8.65;;;;;;;;;;6306811;22;20392;-92
2022/01/24 15:05:22;;;;;;;31.60;11.45;;;;;;;;;;6307104;22;20004;-93
2022/01/24 15:07:49;;;;;;;24.42;10.55;;;;;;;;;;6306026;22;20029;-93
2022/01/24 15:10:15;;;;;;;27.17;11.03;;;;;;;;;;6279163;22;20011;-93
2022/01/24 15:12:48;;;;;;;28.98;9.85;;;;;;;;;;6279038;22;20019;-92
2022/01/24 15:15:17;;;;;;;21.83;8.80;;;;;;;;;;6306927;22;20003;-92
2022/01/24 15:25:40;;;;;;;20.17;9.50;;;;;;;;;;6306328;22;20087;-94
2022/01/24 15:28:06;;;;;;;23.95;9.60;;;;;;;;;;6279826;22;20006;-93
2022/01/24 15:30:35;;;;;;;24.80;10.52;;;;;;;;;;6306141;22;19999;-94
2022/01/24 15:33:01;;;;;;;39.65;10.88;;;;;;;;;;6278641;22;20069;-93
2022/01/24 15:35:28;;;;;;;23.35;8.63;;;;;;;;;;6278838;22;20413;-94
2022/01/24 15:37:54;;;;;;;23.15;8.40;;;;;;;;;;6305830;22;20004;-92
2022/01/24 15:40:20;;;;;;;22.92;10.30;;;;;;;;;;6306880;22;20428;-94
2022/01/24 15:48:04;;;;;;;22.80;8.25;;;;;;;;;;6306958;22;20076;-93
2022/01/24 15:50:30;;;;;;;18.63;9.13;;;;;;;;;;6306260;22;20018;-93
2022/01/24 15:52:58;;;;;;;24.95;10.13;;;;;;;;;;6306790;22;20015;-93
2022/01/24 15:55:28;;;;;;;24.30;11.00;;;;;;;;;;6306525;22;20029;-93
2022/01/24 15:57:55;;;;;;;21.92;9.80;;;;;;;;;;6306635;22;20353;-92
2022/01/24 16:00:25;;;;;;;20.00;10.20;;;;;;;;;;6306317;22;20066;-94
2022/01/24 16:02:53;;;;;;;26.67;10.02;;;;;;;;;;6279377;22;20265;-95
2022/01/24 16:05:20;;;;;;;25.15;9.13;;;;;;;;;;6278825;22;20082;-93
2022/01/24 16:08:04;;;;;;;31.50;10.45;;;;;;;;;;6278682;22;20007;-94
2022/01/24 16:10:33;;;;;;;24.17;10.80;;;;;;;;;;6308055;22;20007;-96
2022/01/24 16:13:01;;;;;;;28.38;11.02;;;;;;;;;;6306721;22;20019;-96
2022/01/24 16:15:31;;;;;;;19.42;11.02;;;;;;;;;;6306910;22;20006;-96
2022/01/24 16:17:58;;;;;;;28.58;11.68;;;;;;;;;;6305534;22;20014;-93
2022/01/24 16:25:38;;;;;;;35.13;13.45;;;;;;;;;;6306053;22;20018;-94
2022/01/24 16:28:07;;;;;;;37.47;17.25;;;;;;;;;;6306032;22;19995;-92
2022/01/24 16:30:34;;;;;;;30.70;13.32;;;;;;;;;;6277543;22;20011;-93
2022/01/24 16:33:03;;;;;;;36.35;11.25;;;;;;;;;;6305125;22;20511;-95
2022/01/24 16:35:30;;;;;;;26.75;10.07;;;;;;;;;;6305639;22;20038;-94
2022/01/24 16:37:56;;;;;;;27.85;13.30;;;;;;;;;;6305876;22;19999;-94
2022/01/24 16:40:29;;;;;;;35.85;11.05;;;;;;;;;;6278434;22;20061;-94
2022/01/24 16:48:25;;;;;;;32.03;12.18;;;;;;;;;;6305563;22;20076;-92
2022/01/24 16:50:51;;;;;;;42.57;16.37;;;;;;;;;;6279046;22;19999;-92
2022/01/24 16:53:18;;;;;;;43.20;12.85;;;;;;;;;;6305534;22;20043;-93
2022/01/24 16:55:44;;;;;;;;;;;;;;;;;;6306489;22;20010;-93
2022/01/24 16:58:11;;;;;;;38.72;15.50;;;;;;;;;;6278632;22;19914;-93
2022/01/24 17:00:37;;;;;;;49.90;16.85;;;;;;;;;;6305593;22;20011;-93
2022/01/24 17:03:04;;;;;;;51.35;13.52;;;;;;;;;;6278410;22;20003;-93
2022/01/24 17:05:30;;;;;;;30.15;12.30;;;;;;;;;;6278625;22;20003;-94
2022/01/24 17:07:56;;;;;;;36.72;13.13;;;;;;;;;;6278360;22;20007;-93
2022/01/24 17:10:22;;;;;;;24.33;10.38;;;;;;;;;;6279081;22;20323;-93
2022/01/24 17:12:49;;;;;;;35.90;15.10;;;;;;;;;;6278661;22;20019;-94
2022/01/24 17:15:18;;;;;;;31.10;13.43;;;;;;;;;;6305487;22;20063;-92
2022/01/24 17:17:44;;;;;;;28.77;14.27;;;;;;;;;;6306333;22;20082;-93
2022/01/24 17:20:10;;;;;;;38.63;13.45;;;;;;;;;;6305258;22;20065;-93
2022/01/24 17:22:36;;;;;;;36.17;11.23;;;;;;;;;;6277299;22;20014;-91
2022/01/24 17:25:03;;;;;;;33.85;11.93;;;;;;;;;;6305861;22;20007;-93
2022/01/24 17:27:29;;;;;;;29.48;12.23;;;;;;;;;;6305522;22;20026;-94
2022/01/24 17:29:55;;;;;;;26.40;11.05;;;;;;;;;;6306052;22;20006;-93
2022/01/24 17:32:21;;;;;;;20.48;7.85;;;;;;;;;;6279009;22;20641;-91
2022/01/24 17:34:47;;;;;;;17.90;9.48;;;;;;;;;;6280528;22;19996;-93
2022/01/24 17:37:13;;;;;;;21.30;9.27;;;;;;;;;;6307958;22;20052;-93
2022/01/24 17:39:39;;;;;;;24.33;9.68;;;;;;;;;;6307512;22;19999;-94
2022/01/24 17:42:06;;;;;;;34.17;14.90;;;;;;;;;;6280542;22;20010;-93
2022/01/24 17:44:32;;;;;;;31.77;13.15;;;;;;;;;;6279909;22;20014;-92
2022/01/24 17:46:59;;;;;;;27.13;11.98;;;;;;;;;;6280341;22;20060;-93
2022/01/24 17:49:25;;;;;;;21.17;10.23;;;;;;;;;;6307517;22;20005;-93
2022/01/24 17:51:51;;;;;;;29.23;13.05;;;;;;;;;;6306854;22;20277;-93
2022/01/24 17:54:17;;;;;;;27.50;10.73;;;;;;;;;;6280116;22;20453;-92
2022/01/24 17:56:48;;;;;;;29.20;12.48;;;;;;;;;;6280099;22;20000;-94
2022/01/24 17:59:14;;;;;;;35.45;11.85;;;;;;;;;;6306646;22;20003;-92
2022/01/24 18:01:40;;;;;;;29.42;13.02;;;;;;;;;;6307845;22;20004;-93
2022/01/24 18:04:06;;;;;;;38.97;13.75;;;;;;;;;;6307742;22;20130;-94
2022/01/24 18:06:34;;;;;;;35.72;12.80;;;;;;;;;;6307363;22;19999;-92
2022/01/24 18:09:01;;;;;;;32.75;12.73;;;;;;;;;;6307313;22;20471;-93
2022/01/24 18:11:28;;;;;;;24.52;8.60;;;;;;;;;;6307635;22;20021;-93
2022/01/24 18:13:54;;;;;;;21.67;8.20;;;;;;;;;;6306928;22;20458;-93
2022/01/24 18:16:22;;;;;;;11.90;6.03;;;;;;;;;;6307603;22;20064;-93
2022/01/24 18:18:48;;;;;;;10.63;5.78;;;;;;;;;;6307653;22;19999;-92
2022/01/24 18:24:01;;;;;;;13.90;5.32;;;;;;;;;;6306435;22;20018;-93
2022/01/24 18:26:29;;;;;;;15.10;4.35;;;;;;;;;;6278480;22;20006;-92
2022/01/24 18:28:56;;;;;;;11.75;4.78;;;;;;;;;;6277681;22;20018;-94
2022/01/24 18:31:23;;;;;;;18.88;10.43;;;;;;;;;;6277768;22;20003;-92
2022/01/24 18:33:50;;;;;;;15.10;8.63;;;;;;;;;;6278326;22;20009;-92
2022/01/24 18:36:18;;;;;;;15.48;6.47;;;;;;;;;;6306216;22;20090;-94
2022/01/24 18:38:44;;;;;;;18.55;9.10;;;;;;;;;;6306800;22;20003;-91
2022/01/24 18:41:11;;;;;;;18.25;8.57;;;;;;;;;;6279220;22;20010;-93
2022/01/24 18:43:40;;;;;;;19.90;8.93;;;;;;;;;;6303764;22;19995;-92
2022/01/24 18:46:07;;;;;;;14.68;6.32;;;;;;;;;;6306604;22;20003;-93
2022/01/24 18:48:35;;;;;;;20.63;9.32;;;;;;;;;;6279256;22;20010;-95
2022/01/24 18:51:02;;;;;;;22.90;10.45;;;;;;;;;;6306106;22;20010;-92
2022/01/24 18:53:30;;;;;;;24.20;9.15;;;;;;;;;;6306316;22;20010;-94
2022/01/24 18:55:59;;;;;;;25.52;10.57;;;;;;;;;;6306564;22;19999;-93
2022/01/24 18:58:29;;;;;;;33.88;11.88;;;;;;;;;;6305722;22;20011;-93
2022/01/24 19:00:58;;;;;;;36.90;15.02;;;;;;;;;;6305992;22;20497;-94
2022/01/24 19:03:27;;;;;;;25.67;9.85;;;;;;;;;;6279339;22;20053;-93
2022/01/24 19:06:03;;;;;;;20.73;10.48;;;;;;;;;;6279378;22;20011;-94
2022/01/24 19:08:32;;;;;;;18.67;7.93;;;;;;;;;;6306457;22;20441;-93
2022/01/24 19:11:00;;;;;;;31.85;10.07;;;;;;;;;;6307055;22;20003;-94
2022/01/24 19:13:32;;;;;;;24.40;9.70;;;;;;;;;;6304847;22;20090;-94
2022/01/24 19:16:03;;;;;;;24.33;10.32;;;;;;;;;;6278220;22;20090;-94
2022/01/24 19:18:46;;;;;;;26.42;11.00;;;;;;;;;;6278720;22;20443;-93
2022/01/24 19:24:15;;;;;;;26.40;11.32;;;;;;;;;;6306781;22;20060;-93
2022/01/24 19:29:58;;;;;;;27.73;11.02;;;;;;;;;;6247632;22;20024;-94
2022/01/24 19:32:24;;;;;;;19.08;10.23;;;;;;;;;;6243307;23;20016;-93
2022/01/24 19:37:38;;;;;;;39.90;13.40;;;;;;;;;;6276693;22;20027;-93
2022/01/24 19:40:06;;;;;;;24.40;11.27;;;;;;;;;;6306747;22;20334;-94
2022/01/24 19:42:32;;;;;;;24.27;8.57;;;;;;;;;;6336757;22;20093;-94
2022/01/24 19:44:59;;;;;;;35.20;10.48;;;;;;;;;;6310898;22;20030;-95